Consulta los datos en tiempo real de la estación municipal de Cercs - St.Jordi
| Hora UTC | 02:00 |
|---|---|
| Temperatura | 22.2 ºC |
| Humedad | 63.5 % |
| Presión | 1023.1 hPa |
| Pluja | 0.0 mm |
| Velocidad viento | 3.0 km/h |
| Dirección viento | W |
| Radiación solar | 0.1 W/m² |
| Temperatura (ºC) | Humedad (%) | Presión (hPa) | Velocidad viento (km/h) | Precipitación (mm) | Radiación solar (W/m²) | |||||||||||||
|---|---|---|---|---|---|---|---|---|---|---|---|---|---|---|---|---|---|---|
| Hora UTC | Aire | Humedad | Presión | Vel. | Dir. | Vel. Max | Dir. | Intent. máx 5 min. | Rad. Sol. | |||||||||
| 00:05 | 23.7 | 62.9 | 1023.4 | 5.6 | NW | 5.6 | NW | 0.0 | 0.1 | |||||||||
| 00:10 | 23.5 | 63.7 | 1023.4 | 2.0 | NW | 8.8 | NNW | 0.0 | 0.1 | |||||||||
| 00:15 | 23.4 | 63.6 | 1023.4 | 0.4 | NNW | 6.1 | W | 0.0 | 0.1 | |||||||||
| 00:20 | 23.4 | 63.3 | 1023.4 | 3.4 | NNE | 8.8 | NNE | 0.0 | 0.1 | |||||||||
| 00:25 | 23.5 | 62.1 | 1023.4 | 4.2 | NNE | 11.5 | NNE | 0.0 | 0.1 | |||||||||
| 00:30 | 23.5 | 62.3 | 1023.4 | 1.2 | NNE | 8.8 | NE | 0.0 | 0.1 | |||||||||
| 00:35 | 23.1 | 63.5 | 1023.4 | 3.3 | NW | 8.8 | N | 0.0 | 0.1 | |||||||||
| 00:40 | 23.0 | 63.3 | 1023.3 | 2.9 | N | 8.8 | NNW | 0.0 | 0.1 | |||||||||
| 00:45 | 23.1 | 62.9 | 1023.3 | 3.2 | NW | 8.8 | NW | 0.0 | 0.1 | |||||||||
| 00:50 | 22.9 | 63.6 | 1023.3 | 0.9 | NNW | 6.1 | NW | 0.0 | 0.1 | |||||||||
| 00:55 | 22.8 | 63.9 | 1023.3 | 0.0 | NNE | 0.0 | NW | 0.0 | 0.1 | |||||||||
| 01:00 | 22.6 | 64.5 | 1023.3 | 0.6 | NE | 6.1 | NNE | 0.0 | 0.1 | |||||||||
| 01:05 | 22.5 | 64.5 | 1023.3 | 0.2 | N | 3.4 | NE | 0.0 | 0.1 | |||||||||
| 01:10 | 22.3 | 65.0 | 1023.3 | 1.2 | N | 11.5 | NW | 0.0 | 0.2 | |||||||||
| 01:15 | 22.5 | 64.2 | 1023.3 | 5.3 | NW | 8.8 | WNW | 0.0 | 0.1 | |||||||||
| 01:20 | 22.5 | 64.3 | 1023.3 | 3.5 | NNW | 14.2 | NNE | 0.0 | 0.1 | |||||||||
| 01:25 | 22.7 | 62.7 | 1023.2 | 2.8 | N | 11.5 | NE | 0.0 | 0.1 | |||||||||
| 01:30 | 22.8 | 62.6 | 1023.2 | 3.2 | NW | 6.1 | NNE | 0.0 | 0.1 | |||||||||
| 01:35 | 22.5 | 63.5 | 1023.2 | 4.2 | NW | 8.8 | N | 0.0 | 0.1 | |||||||||
| 01:40 | 22.5 | 64.0 | 1023.1 | 1.8 | NNW | 8.8 | WNW | 0.0 | 0.1 | |||||||||
| 01:45 | 22.3 | 63.7 | 1023.1 | 1.3 | NW | 11.5 | NW | 0.0 | 0.1 | |||||||||
| 01:50 | 22.1 | 63.5 | 1023.1 | 2.7 | WNW | 8.8 | NW | 0.0 | 0.1 | |||||||||
| 01:55 | 22.0 | 63.2 | 1023.2 | 1.9 | NW | 8.8 | NW | 0.0 | 0.1 | |||||||||
| 02:00 | 22.2 | 63.5 | 1023.1 | 3.0 | W | 11.5 | NNE | 0.0 | 0.1 | |||||||||
| Máxima | 23.7 | 65.0 | 1023.4 | 5.6 | NW | 14.2 | NNE | 0.0 | 0.2 | |||||||||
| Mínima | 20 | 62.1 | 1023.1 | |||||||||||||||
| Total | 0.0 | |||||||||||||||||